createdAt,value
2023-09-16T00:01:35.456Z,8.20
2023-09-16T00:04:02.484Z,8.60
2023-09-16T00:06:29.011Z,6.97
2023-09-16T00:08:55.432Z,7.88
2023-09-16T00:11:22.561Z,7.47
2023-09-16T00:13:48.950Z,7.13
2023-09-16T00:16:16.845Z,6.75
2023-09-16T00:18:43.584Z,7.80
2023-09-16T00:21:11.606Z,8.30
2023-09-16T00:23:38.715Z,8.05
2023-09-16T00:26:05.123Z,7.93
2023-09-16T00:28:36.934Z,7.38
2023-09-16T00:31:03.514Z,6.97
2023-09-16T00:33:30.678Z,6.82
2023-09-16T00:35:58.005Z,6.45
2023-09-16T00:38:24.592Z,7.30
2023-09-16T00:40:51.124Z,7.75
2023-09-16T00:43:17.515Z,6.13
2023-09-16T00:45:43.976Z,6.72
2023-09-16T00:48:12.650Z,7.18
2023-09-16T00:50:39.085Z,6.35
2023-09-16T00:53:05.937Z,7.38
2023-09-16T00:55:32.280Z,6.72
2023-09-16T00:57:59.232Z,7.18
2023-09-16T01:00:27.702Z,5.93
2023-09-16T01:02:55.435Z,5.82
2023-09-16T01:05:22.355Z,5.50
2023-09-16T01:07:48.876Z,6.85
2023-09-16T01:10:16.000Z,8.38
2023-09-16T01:12:43.003Z,7.25
2023-09-16T01:15:10.067Z,7.82
2023-09-16T01:17:52.304Z,6.40
2023-09-16T01:20:19.870Z,5.80
2023-09-16T01:22:46.754Z,5.70
2023-09-16T01:25:14.817Z,5.45
2023-09-16T01:27:41.334Z,6.90
2023-09-16T01:30:08.462Z,5.05
2023-09-16T01:32:41.124Z,6.10
2023-09-16T01:35:09.149Z,7.20
2023-09-16T01:37:35.987Z,5.53
2023-09-16T01:40:11.373Z,5.75
2023-09-16T01:42:38.098Z,5.90
2023-09-16T01:45:05.113Z,6.07
2023-09-16T01:47:31.490Z,6.07
2023-09-16T01:49:57.897Z,5.35
2023-09-16T01:52:24.275Z,6.80
2023-09-16T01:54:50.599Z,5.47
2023-09-16T01:57:17.077Z,5.30
2023-09-16T01:59:43.457Z,5.35
2023-09-16T02:02:09.807Z,5.43
2023-09-16T02:04:37.534Z,5.65
2023-09-16T02:07:04.032Z,6.03
2023-09-16T02:09:30.413Z,6.80
2023-09-16T02:11:56.761Z,5.35
2023-09-16T02:14:23.117Z,4.68
2023-09-16T02:16:50.570Z,6.40
2023-09-16T02:19:17.361Z,4.80
2023-09-16T02:21:43.788Z,6.75
2023-09-16T02:24:10.181Z,6.85
2023-09-16T02:26:36.572Z,5.38
2023-09-16T02:29:03.035Z,6.13
2023-09-16T02:31:29.519Z,7.47
2023-09-16T02:33:56.502Z,5.88
2023-09-16T02:36:22.844Z,5.28
2023-09-16T02:38:49.818Z,9.20
2023-09-16T02:41:18.948Z,5.97
2023-09-16T02:43:45.772Z,5.60
2023-09-16T02:46:12.179Z,7.00
2023-09-16T02:48:38.564Z,4.95
2023-09-16T02:51:04.934Z,5.97
2023-09-16T02:53:31.288Z,5.95
2023-09-16T02:55:57.597Z,4.90
2023-09-16T02:58:24.053Z,7.25
2023-09-16T03:00:50.394Z,4.57
2023-09-16T03:03:16.955Z,6.50
2023-09-16T03:05:46.567Z,5.95
2023-09-16T03:08:13.488Z,5.35
2023-09-16T03:10:39.978Z,5.88
2023-09-16T03:13:06.379Z,5.72
2023-09-16T03:15:36.453Z,5.97
2023-09-16T03:18:08.612Z,5.25
2023-09-16T03:20:35.392Z,5.78
2023-09-16T03:23:01.743Z,7.20
2023-09-16T03:25:28.047Z,5.30
2023-09-16T03:27:54.443Z,4.70
2023-09-16T03:30:21.700Z,5.90
2023-09-16T03:32:48.187Z,6.22
2023-09-16T03:35:14.623Z,4.88
2023-09-16T03:37:40.990Z,5.85
2023-09-16T03:40:07.634Z,5.97
2023-09-16T03:42:34.128Z,4.38
2023-09-16T03:45:00.808Z,4.65
2023-09-16T03:47:28.302Z,4.55
2023-09-16T03:49:54.680Z,5.55
2023-09-16T03:52:21.106Z,4.68
2023-09-16T03:54:47.430Z,5.00
2023-09-16T03:57:13.780Z,5.03
2023-09-16T03:59:40.124Z,5.55
2023-09-16T04:02:06.513Z,5.20
2023-09-16T04:04:32.882Z,5.22
2023-09-16T04:06:59.259Z,4.18
2023-09-16T04:09:26.597Z,6.57
2023-09-16T04:11:52.975Z,4.70
2023-09-16T04:14:21.318Z,5.13
2023-09-16T04:16:48.792Z,5.32
2023-09-16T04:19:15.271Z,7.13
2023-09-16T04:21:41.779Z,5.63
2023-09-16T04:24:08.277Z,5.78
2023-09-16T04:26:35.062Z,6.60
2023-09-16T04:29:02.093Z,4.53
2023-09-16T04:31:28.672Z,7.05
2023-09-16T04:33:55.353Z,5.50
2023-09-16T04:36:21.696Z,5.55
2023-09-16T04:38:48.044Z,4.28
2023-09-16T04:41:15.129Z,5.05
2023-09-16T04:43:41.910Z,4.47
2023-09-16T04:46:08.406Z,5.78
2023-09-16T04:48:34.872Z,4.72
2023-09-16T04:51:01.273Z,4.50
2023-09-16T04:53:27.675Z,4.93
2023-09-16T04:56:01.614Z,4.28
2023-09-16T04:58:28.175Z,5.22
2023-09-16T05:00:54.671Z,5.53
2023-09-16T05:03:21.114Z,4.70
2023-09-16T05:05:47.584Z,4.15
2023-09-16T05:08:13.940Z,5.40
2023-09-16T05:10:40.327Z,4.55
2023-09-16T05:13:06.767Z,4.97
2023-09-16T05:15:33.188Z,4.88
2023-09-16T05:17:59.702Z,4.45
2023-09-16T05:20:26.250Z,4.72
2023-09-16T05:22:52.771Z,4.70
2023-09-16T05:25:19.239Z,4.90
2023-09-16T05:27:46.720Z,4.55
2023-09-16T05:30:13.229Z,4.18
2023-09-16T05:32:39.642Z,4.75
2023-09-16T05:35:06.152Z,4.45
2023-09-16T05:37:32.510Z,4.68
2023-09-16T05:39:58.894Z,5.78
2023-09-16T05:42:25.251Z,5.80
2023-09-16T05:44:51.628Z,4.65
2023-09-16T05:47:18.562Z,3.50
2023-09-16T05:49:45.354Z,4.60
2023-09-16T05:52:11.763Z,5.15
2023-09-16T05:54:38.201Z,3.70
2023-09-16T05:57:04.621Z,4.75
2023-09-16T05:59:30.946Z,5.25
2023-09-16T06:01:57.337Z,4.18
2023-09-16T06:04:23.695Z,6.25
2023-09-16T06:06:53.029Z,4.10
2023-09-16T06:09:19.405Z,6.28
2023-09-16T06:11:45.746Z,5.68
2023-09-16T06:14:12.167Z,6.57
2023-09-16T06:16:38.713Z,7.97
2023-09-16T06:19:05.247Z,6.00
2023-09-16T06:21:31.876Z,5.93
2023-09-16T06:23:59.024Z,5.32
2023-09-16T06:26:25.453Z,5.75
2023-09-16T06:28:51.867Z,5.78
2023-09-16T06:31:18.412Z,6.75
2023-09-16T06:33:44.862Z,5.25
2023-09-16T06:36:11.209Z,7.68
2023-09-16T06:38:37.561Z,6.60
2023-09-16T06:41:03.866Z,7.80
2023-09-16T06:43:30.295Z,8.23
2023-09-16T06:45:56.718Z,8.90
2023-09-16T06:48:23.159Z,6.35
2023-09-16T06:50:51.311Z,9.00
2023-09-16T06:53:17.922Z,10.55
2023-09-16T06:55:44.320Z,7.50
2023-09-16T06:58:10.736Z,6.50
2023-09-16T07:00:37.639Z,6.60
2023-09-16T07:03:04.206Z,7.03
2023-09-16T07:05:31.122Z,5.80
2023-09-16T07:07:57.766Z,6.85
2023-09-16T07:10:24.139Z,8.77
2023-09-16T07:12:50.534Z,8.90
2023-09-16T07:15:17.052Z,8.48
2023-09-16T07:17:43.570Z,7.05
2023-09-16T07:20:10.316Z,6.28
2023-09-16T07:22:36.955Z,9.75
2023-09-16T07:25:03.419Z,8.07
2023-09-16T07:27:29.802Z,7.05
2023-09-16T07:29:56.366Z,8.82
2023-09-16T07:32:22.728Z,6.57
2023-09-16T07:34:49.148Z,9.13
2023-09-16T07:37:15.864Z,6.03
2023-09-16T07:39:42.418Z,7.85
2023-09-16T07:42:11.015Z,8.25
2023-09-16T07:44:37.427Z,7.57
2023-09-16T07:47:03.917Z,7.72
2023-09-16T07:49:30.297Z,9.70
2023-09-16T07:51:56.743Z,6.70
2023-09-16T07:54:23.309Z,6.82
2023-09-16T07:56:49.719Z,8.98
2023-09-16T07:59:21.378Z,7.57
2023-09-16T08:01:47.980Z,7.53
2023-09-16T08:04:14.569Z,6.40
2023-09-16T08:06:41.137Z,5.55
2023-09-16T08:09:07.530Z,7.15
2023-09-16T08:11:33.937Z,6.10
2023-09-16T08:14:00.836Z,7.90
2023-09-16T08:16:27.338Z,6.88
2023-09-16T08:18:53.803Z,9.10
2023-09-16T08:21:20.182Z,7.93
2023-09-16T08:23:46.584Z,10.00
2023-09-16T08:26:13.016Z,6.18
2023-09-16T08:28:39.490Z,7.32
2023-09-16T08:31:05.936Z,10.55
2023-09-16T08:33:32.429Z,9.70
2023-09-16T08:35:58.993Z,7.13
2023-09-16T08:38:25.422Z,8.73
2023-09-16T08:40:56.528Z,7.15
2023-09-16T08:43:27.301Z,8.55
2023-09-16T08:46:04.570Z,6.25
2023-09-16T08:48:33.349Z,6.95
2023-09-16T08:51:02.537Z,6.97
2023-09-16T08:53:30.873Z,7.80
2023-09-16T08:55:57.936Z,8.85
2023-09-16T08:58:24.806Z,11.20
2023-09-16T09:00:51.327Z,8.60
2023-09-16T09:03:17.866Z,8.52
2023-09-16T09:05:45.479Z,7.55
2023-09-16T09:08:12.817Z,6.28
2023-09-16T09:10:39.536Z,7.38
2023-09-16T09:13:07.310Z,7.13
2023-09-16T09:15:35.076Z,7.00
2023-09-16T09:18:02.026Z,6.03
2023-09-16T09:20:29.060Z,8.15
2023-09-16T09:22:56.168Z,8.35
2023-09-16T09:25:26.576Z,6.55
2023-09-16T09:27:53.701Z,9.35
2023-09-16T09:30:30.804Z,8.02
2023-09-16T09:32:58.019Z,8.55
2023-09-16T09:35:31.346Z,8.88
2023-09-16T09:37:58.215Z,7.30
2023-09-16T09:40:25.121Z,7.97
2023-09-16T09:42:53.143Z,6.07
2023-09-16T09:45:20.414Z,6.65
2023-09-16T09:47:47.336Z,6.68
2023-09-16T09:50:15.049Z,7.07
2023-09-16T09:52:48.519Z,7.28
2023-09-16T09:55:18.793Z,7.18
2023-09-16T09:57:48.897Z,8.20
2023-09-16T10:00:17.537Z,7.45
2023-09-16T10:02:44.648Z,5.80
2023-09-16T10:05:15.444Z,5.75
2023-09-16T10:07:43.773Z,6.38
2023-09-16T10:10:18.297Z,8.05
2023-09-16T10:12:45.973Z,6.28
2023-09-16T10:15:13.393Z,5.97
2023-09-16T10:17:40.479Z,5.45
2023-09-16T10:20:07.543Z,6.55
2023-09-16T10:22:34.249Z,6.35
2023-09-16T10:25:00.802Z,5.80
2023-09-16T10:27:28.814Z,5.28
2023-09-16T10:29:56.367Z,6.30
2023-09-16T10:32:23.128Z,6.22
2023-09-16T10:34:50.153Z,7.25
2023-09-16T10:37:20.405Z,6.57
2023-09-16T10:39:47.786Z,5.85
2023-09-16T10:42:21.117Z,5.20
2023-09-16T10:44:48.026Z,5.30
2023-09-16T10:47:17.320Z,6.85
2023-09-16T10:49:46.855Z,6.00
2023-09-16T10:52:16.991Z,4.38
2023-09-16T10:54:48.112Z,6.35
2023-09-16T10:57:18.015Z,5.60
2023-09-16T10:59:45.312Z,5.30
2023-09-16T11:02:24.918Z,5.57
2023-09-16T11:04:51.485Z,6.10
2023-09-16T11:07:18.074Z,6.70
2023-09-16T11:09:44.791Z,6.40
2023-09-16T11:12:11.427Z,4.43
2023-09-16T11:14:38.325Z,4.82
2023-09-16T11:17:11.066Z,4.80
2023-09-16T11:19:40.582Z,5.93
2023-09-16T11:22:07.703Z,5.05
2023-09-16T11:24:35.386Z,4.43
2023-09-16T11:27:01.984Z,5.70
2023-09-16T11:29:29.563Z,5.97
2023-09-16T11:31:56.914Z,6.28
2023-09-16T11:34:24.491Z,5.38
2023-09-16T11:36:55.416Z,4.63
2023-09-16T11:39:23.800Z,6.22
2023-09-16T11:41:50.235Z,6.15
2023-09-16T11:44:16.894Z,5.10
2023-09-16T11:46:46.845Z,5.20
2023-09-16T11:49:13.484Z,4.35
2023-09-16T11:51:40.252Z,4.72
2023-09-16T11:54:07.565Z,4.85
2023-09-16T11:56:35.975Z,5.00
2023-09-16T11:59:04.276Z,5.53
2023-09-16T12:01:31.983Z,7.40
2023-09-16T12:03:59.251Z,4.57
2023-09-16T12:06:27.345Z,4.07
2023-09-16T12:08:54.831Z,4.93
2023-09-16T12:11:22.378Z,5.00
2023-09-16T12:13:49.543Z,4.68
2023-09-16T12:16:17.176Z,4.85
2023-09-16T12:18:44.249Z,4.90
2023-09-16T12:21:11.132Z,5.07
2023-09-16T12:23:37.934Z,4.70
2023-09-16T12:26:04.458Z,4.85
2023-09-16T12:28:31.115Z,4.57
2023-09-16T12:30:57.714Z,4.18
2023-09-16T12:33:24.788Z,4.25
2023-09-16T12:35:52.253Z,4.55
2023-09-16T12:38:18.712Z,4.22
2023-09-16T12:40:45.374Z,4.82
2023-09-16T12:43:12.171Z,4.30
2023-09-16T12:45:39.808Z,3.88
2023-09-16T12:48:08.668Z,5.03
2023-09-16T12:50:37.594Z,3.85
2023-09-16T12:53:04.160Z,3.67
2023-09-16T12:55:30.556Z,5.75
2023-09-16T12:57:57.002Z,4.13
2023-09-16T13:00:26.961Z,4.22
2023-09-16T13:02:54.033Z,5.22
2023-09-16T13:05:21.540Z,4.30
2023-09-16T13:07:54.857Z,5.15
2023-09-16T13:10:21.799Z,4.00
2023-09-16T13:12:51.780Z,4.28
2023-09-16T13:15:21.694Z,4.50
2023-09-16T13:17:49.204Z,4.57
2023-09-16T13:20:16.792Z,4.40
2023-09-16T13:22:44.077Z,4.18
2023-09-16T13:25:29.788Z,3.97
2023-09-16T13:27:56.811Z,4.90
2023-09-16T13:30:27.265Z,4.50
2023-09-16T13:32:54.025Z,6.13
2023-09-16T13:35:21.046Z,4.93
2023-09-16T13:37:50.525Z,4.40
2023-09-16T13:40:17.329Z,4.30
2023-09-16T13:42:44.121Z,4.05
2023-09-16T13:45:10.754Z,4.00
2023-09-16T13:47:40.130Z,4.63
2023-09-16T13:50:06.730Z,4.15
2023-09-16T13:52:37.498Z,4.68
2023-09-16T13:55:04.252Z,4.03
2023-09-16T13:57:30.706Z,4.00
2023-09-16T13:59:57.092Z,4.47
2023-09-16T14:02:24.457Z,4.50
2023-09-16T14:04:51.372Z,4.53
2023-09-16T14:07:19.217Z,3.55
2023-09-16T14:09:47.568Z,3.92
2023-09-16T14:12:13.933Z,4.15
2023-09-16T14:14:40.512Z,4.03
2023-09-16T14:17:07.061Z,4.57
2023-09-16T14:19:33.526Z,4.10
2023-09-16T14:22:01.755Z,4.32
2023-09-16T14:24:29.108Z,4.25
2023-09-16T14:26:55.512Z,4.47
2023-09-16T14:29:21.934Z,3.60
2023-09-16T14:31:52.265Z,3.45
2023-09-16T14:34:21.857Z,4.30
2023-09-16T14:36:49.199Z,3.55
2023-09-16T14:39:16.945Z,3.92
2023-09-16T14:41:45.286Z,4.55
2023-09-16T14:44:13.021Z,3.90
2023-09-16T14:46:40.371Z,4.05
2023-09-16T14:49:07.720Z,4.03
2023-09-16T14:51:40.806Z,3.92
2023-09-16T14:54:08.497Z,3.75
2023-09-16T14:56:35.366Z,4.18
2023-09-16T14:59:03.591Z,3.85
2023-09-16T15:01:30.159Z,3.83
2023-09-16T15:03:56.929Z,3.40
2023-09-16T15:06:23.369Z,3.65
2023-09-16T15:08:50.087Z,4.20
2023-09-16T15:11:20.876Z,3.80
2023-09-16T15:13:47.571Z,3.80
2023-09-16T15:16:15.427Z,4.15
2023-09-16T15:18:42.182Z,3.95
2023-09-16T15:21:08.571Z,3.85
2023-09-16T15:23:34.940Z,3.55
2023-09-16T15:26:01.384Z,3.75
2023-09-16T15:28:27.803Z,3.90
2023-09-16T15:30:54.336Z,3.58
2023-09-16T15:33:21.001Z,4.40
2023-09-16T15:35:47.551Z,3.90
2023-09-16T15:38:15.359Z,3.90
2023-09-16T15:40:41.886Z,4.22
2023-09-16T15:43:08.649Z,3.60
2023-09-16T15:45:36.179Z,4.97
2023-09-16T15:48:02.890Z,3.92
2023-09-16T15:50:29.496Z,4.10
2023-09-16T15:52:56.184Z,3.80
2023-09-16T15:55:22.657Z,3.60
2023-09-16T15:57:49.119Z,3.47
2023-09-16T16:00:15.750Z,3.45
2023-09-16T16:02:42.656Z,3.90
2023-09-16T16:05:09.320Z,4.68
2023-09-16T16:07:35.772Z,3.63
2023-09-16T16:10:02.214Z,3.80
2023-09-16T16:12:28.676Z,3.63
2023-09-16T16:14:55.059Z,4.47
2023-09-16T16:17:24.461Z,3.60
2023-09-16T16:19:51.408Z,3.60
2023-09-16T16:22:17.854Z,4.70
2023-09-16T16:24:44.422Z,3.97
2023-09-16T16:27:10.833Z,4.05
2023-09-16T16:29:37.264Z,4.10
2023-09-16T16:32:03.871Z,4.03
2023-09-16T16:34:30.313Z,4.47
2023-09-16T16:36:56.840Z,4.25
2023-09-16T16:39:23.248Z,4.32
2023-09-16T16:41:49.693Z,3.92
2023-09-16T16:44:16.109Z,4.35
2023-09-16T16:46:42.622Z,3.88
2023-09-16T16:49:09.044Z,4.80
2023-09-16T16:51:35.403Z,3.80
2023-09-16T16:54:01.803Z,3.85
2023-09-16T16:56:28.187Z,4.57
2023-09-16T16:58:54.627Z,5.13
2023-09-16T17:01:21.148Z,3.90
2023-09-16T17:03:49.402Z,6.30
2023-09-16T17:06:16.215Z,6.43
2023-09-16T17:08:42.632Z,3.90
2023-09-16T17:11:09.433Z,4.30
2023-09-16T17:13:36.802Z,4.22
2023-09-16T17:16:05.386Z,4.57
2023-09-16T17:18:31.833Z,4.10
2023-09-16T17:20:58.358Z,4.70
2023-09-16T17:23:25.297Z,4.18
2023-09-16T17:25:51.765Z,3.88
2023-09-16T17:28:25.568Z,3.40
2023-09-16T17:30:52.471Z,5.38
2023-09-16T17:33:19.436Z,5.65
2023-09-16T17:35:46.714Z,4.78
2023-09-16T17:38:13.089Z,4.35
2023-09-16T17:40:39.547Z,5.32
2023-09-16T17:43:12.160Z,4.60
2023-09-16T17:45:38.653Z,4.15
2023-09-16T17:48:05.530Z,5.72
2023-09-16T17:50:32.011Z,5.35
2023-09-16T17:52:58.421Z,5.75
2023-09-16T17:55:24.862Z,5.05
2023-09-16T17:57:51.335Z,4.40
2023-09-16T18:00:17.726Z,3.67
2023-09-16T18:02:44.364Z,4.10
2023-09-16T18:05:10.830Z,3.55
2023-09-16T18:07:37.754Z,4.03
2023-09-16T18:10:07.673Z,4.10
2023-09-16T18:12:35.044Z,4.13
2023-09-16T18:15:01.472Z,4.60
2023-09-16T18:17:27.876Z,5.05
2023-09-16T18:19:54.442Z,3.58
2023-09-16T18:22:21.106Z,4.97
2023-09-16T18:24:47.544Z,5.03
2023-09-16T18:27:14.709Z,7.03
2023-09-16T18:29:41.210Z,4.75
2023-09-16T18:32:07.685Z,3.60
2023-09-16T18:34:34.168Z,4.30
2023-09-16T18:37:00.588Z,4.60
2023-09-16T18:39:29.698Z,6.72
2023-09-16T18:41:56.101Z,3.95
2023-09-16T18:44:23.396Z,5.03
2023-09-16T18:46:51.521Z,5.15
2023-09-16T18:49:18.066Z,6.60
2023-09-16T18:51:45.163Z,4.40
2023-09-16T18:54:12.212Z,5.13
2023-09-16T18:56:38.599Z,4.78
2023-09-16T18:59:05.454Z,5.60
2023-09-16T19:01:32.444Z,4.18
2023-09-16T19:03:59.705Z,5.55
2023-09-16T19:06:26.949Z,4.03
2023-09-16T19:08:53.329Z,5.97
2023-09-16T19:11:21.032Z,6.05
2023-09-16T19:13:47.575Z,5.90
2023-09-16T19:16:14.699Z,5.25
2023-09-16T19:18:41.148Z,5.35
2023-09-16T19:21:07.606Z,5.97
2023-09-16T19:23:33.965Z,6.00
2023-09-16T19:26:00.680Z,4.70
2023-09-16T19:28:27.170Z,5.47
2023-09-16T19:30:53.706Z,5.93
2023-09-16T19:33:20.223Z,5.80
2023-09-16T19:35:46.641Z,6.65
2023-09-16T19:38:13.084Z,5.68
2023-09-16T19:40:39.548Z,4.40
2023-09-16T19:43:06.082Z,6.75
2023-09-16T19:45:32.514Z,5.95
2023-09-16T19:47:59.080Z,8.43
2023-09-16T19:50:27.199Z,5.13
2023-09-16T19:52:53.737Z,6.75
2023-09-16T19:55:20.190Z,7.32
2023-09-16T19:57:46.651Z,5.85
2023-09-16T20:00:14.064Z,7.47
2023-09-16T20:02:40.779Z,6.43
2023-09-16T20:05:07.390Z,6.95
2023-09-16T20:07:33.764Z,7.88
2023-09-16T20:10:00.702Z,6.30
2023-09-16T20:12:27.134Z,7.68
2023-09-16T20:14:53.507Z,5.47
2023-09-16T20:17:19.904Z,6.53
2023-09-16T20:19:48.135Z,6.78
2023-09-16T20:22:14.550Z,7.68
2023-09-16T20:24:41.016Z,7.35
2023-09-16T20:27:07.798Z,5.45
2023-09-16T20:29:34.909Z,5.75
2023-09-16T20:32:01.333Z,8.93
2023-09-16T20:34:27.848Z,7.68
2023-09-16T20:36:54.535Z,7.80
2023-09-16T20:39:20.925Z,7.55
2023-09-16T20:41:47.339Z,8.98
2023-09-16T20:44:13.997Z,7.45
2023-09-16T20:46:40.749Z,7.85
2023-09-16T20:49:07.411Z,7.70
2023-09-16T20:51:33.951Z,9.13
2023-09-16T20:54:00.423Z,7.93
2023-09-16T20:56:26.803Z,7.95
2023-09-16T20:58:53.436Z,6.28
2023-09-16T21:01:19.909Z,6.82
2023-09-16T21:03:46.487Z,7.07
2023-09-16T21:06:13.054Z,6.28
2023-09-16T21:08:40.032Z,6.78
2023-09-16T21:11:06.384Z,8.43
2023-09-16T21:13:32.816Z,7.10
2023-09-16T21:15:59.313Z,11.55
2023-09-16T21:18:25.849Z,6.60
2023-09-16T21:20:52.241Z,6.82
2023-09-16T21:23:18.699Z,5.82
2023-09-16T21:25:45.145Z,8.60
2023-09-16T21:28:11.648Z,6.55
2023-09-16T21:30:38.136Z,6.82
2023-09-16T21:33:04.835Z,6.15
2023-09-16T21:35:31.318Z,7.45
2023-09-16T21:37:57.787Z,7.38
2023-09-16T21:40:25.728Z,6.55
2023-09-16T21:42:52.965Z,5.95
2023-09-16T21:45:19.455Z,8.43
2023-09-16T21:47:45.931Z,6.55
2023-09-16T21:50:12.670Z,9.48
2023-09-16T21:52:39.065Z,7.68
2023-09-16T21:55:05.756Z,7.80
2023-09-16T21:57:32.194Z,7.40
2023-09-16T21:59:58.643Z,7.50
2023-09-16T22:02:25.087Z,7.93
2023-09-16T22:04:51.556Z,8.45
2023-09-16T22:07:17.984Z,7.55
2023-09-16T22:09:45.577Z,8.10
2023-09-16T22:12:11.970Z,7.43
2023-09-16T22:14:38.342Z,8.93
2023-09-16T22:17:04.712Z,8.40
2023-09-16T22:19:31.113Z,7.15
2023-09-16T22:21:57.484Z,6.05
2023-09-16T22:24:23.858Z,6.88
2023-09-16T22:26:50.194Z,10.05
2023-09-16T22:29:16.560Z,7.88
2023-09-16T22:31:42.985Z,6.90
2023-09-16T22:34:09.419Z,7.82
2023-09-16T22:36:35.828Z,6.28
2023-09-16T22:39:02.190Z,5.97
2023-09-16T22:41:28.669Z,9.80
2023-09-16T22:43:55.089Z,11.23
2023-09-16T22:46:21.606Z,7.30
2023-09-16T22:48:48.206Z,6.85
2023-09-16T22:51:14.600Z,6.47
2023-09-16T22:53:41.024Z,8.02
2023-09-16T22:56:07.447Z,6.07
2023-09-16T22:58:35.363Z,7.53
2023-09-16T23:01:08.708Z,8.50
2023-09-16T23:03:35.361Z,7.43
2023-09-16T23:06:02.185Z,8.55
2023-09-16T23:08:28.962Z,7.47
2023-09-16T23:10:55.362Z,6.72
2023-09-16T23:13:21.771Z,6.65
2023-09-16T23:15:48.499Z,7.90
2023-09-16T23:18:14.994Z,6.88
2023-09-16T23:20:43.123Z,7.10
2023-09-16T23:23:09.754Z,7.03
2023-09-16T23:25:36.171Z,6.47
2023-09-16T23:28:02.683Z,5.68
2023-09-16T23:30:29.184Z,7.00
2023-09-16T23:32:55.659Z,6.93
2023-09-16T23:35:22.172Z,6.40
2023-09-16T23:37:48.567Z,7.95
2023-09-16T23:40:14.972Z,6.50
2023-09-16T23:42:41.335Z,6.88
2023-09-16T23:45:08.134Z,6.72
2023-09-16T23:47:34.548Z,6.55
2023-09-16T23:50:00.962Z,7.45
2023-09-16T23:52:27.435Z,5.40
2023-09-16T23:54:53.812Z,7.10
2023-09-16T23:57:20.215Z,6.05
2023-09-16T23:59:46.572Z,6.00
